Time;durP1;ratioP1;P1;durP2;ratioP2;P2;SDS_P1;SDS_P2;PMS_P1;PMS_P2;Temp;Humidity;BMP_temperature;BMP_pressure;BME280_temperature;BME280_humidity;BME280_pressure;Samples;Min_cycle;Max_cycle;Signal;HPM_P1;HPM_P2
2023/10/30 00:00:07;;;;;;;14.57;9.07;;;6.10;99.90;;;;;;5113162;28;20080;-75
2023/10/30 00:02:37;;;;;;;20.17;11.25;;;6.00;99.90;;;;;;5113457;28;20427;-81
2023/10/30 00:05:03;;;;;;;18.42;11.13;;;5.80;99.90;;;;;;5114087;28;20039;-80
2023/10/30 00:07:29;;;;;;;14.65;10.88;;;5.70;99.90;;;;;;5113185;28;20030;-80
2023/10/30 00:09:55;;;;;;;16.73;11.95;;;5.60;99.90;;;;;;5112863;28;20024;-75
2023/10/30 00:12:20;;;;;;;21.65;14.48;;;5.60;99.90;;;;;;5114608;28;20381;-80
2023/10/30 00:14:47;;;;;;;29.63;16.83;;;5.50;99.90;;;;;;5109804;28;20031;-76
2023/10/30 00:17:12;;;;;;;24.75;16.02;;;5.50;99.90;;;;;;5106936;28;20038;-79
2023/10/30 00:19:38;;;;;;;26.13;15.43;;;5.40;99.90;;;;;;5114058;28;20469;-80
2023/10/30 00:22:04;;;;;;;19.20;14.20;;;5.40;99.90;;;;;;5114187;28;20054;-76
2023/10/30 00:24:32;;;;;;;21.65;14.30;;;5.40;99.90;;;;;;5112816;28;20011;-75
2023/10/30 00:26:58;;;;;;;26.92;15.30;;;5.40;99.90;;;;;;5113938;28;20380;-80
2023/10/30 00:29:24;;;;;;;24.30;15.05;;;5.40;99.90;;;;;;5114323;28;20506;-76
2023/10/30 00:31:50;;;;;;;23.95;14.65;;;5.40;99.90;;;;;;5114023;28;20123;-80
2023/10/30 00:34:15;;;;;;;25.83;14.05;;;5.40;99.90;;;;;;5114012;28;20032;-80
2023/10/30 00:36:41;;;;;;;23.40;15.88;;;5.40;99.90;;;;;;5113229;28;20077;-76
2023/10/30 00:39:07;;;;;;;21.70;14.48;;;5.40;99.90;;;;;;5114034;28;20542;-78
2023/10/30 00:41:32;;;;;;;30.33;15.73;;;5.40;99.90;;;;;;5113528;28;20026;-80
2023/10/30 00:43:58;;;;;;;22.73;14.38;;;5.40;99.90;;;;;;5112270;28;20096;-75
2023/10/30 00:46:23;;;;;;;23.88;14.05;;;5.40;99.90;;;;;;5112416;28;20491;-75
2023/10/30 00:48:49;;;;;;;20.50;13.15;;;5.50;99.90;;;;;;5112258;28;20020;-80
2023/10/30 00:51:15;;;;;;;20.45;12.82;;;5.50;99.90;;;;;;5113623;28;20100;-80
2023/10/30 00:53:42;;;;;;;17.02;10.23;;;5.50;99.90;;;;;;5113450;28;20023;-76
2023/10/30 00:56:08;;;;;;;18.02;10.93;;;5.40;99.90;;;;;;5112339;28;20507;-76
2023/10/30 00:58:34;;;;;;;14.15;8.38;;;5.40;99.90;;;;;;5113358;28;20094;-80
2023/10/30 01:01:00;;;;;;;11.05;7.55;;;5.40;99.90;;;;;;5112060;28;20020;-76
2023/10/30 01:03:26;;;;;;;15.85;7.10;;;5.40;99.90;;;;;;5113144;28;20031;-81
2023/10/30 01:06:01;;;;;;;12.73;7.32;;;5.40;99.90;;;;;;5113323;28;20102;-80
2023/10/30 01:08:27;;;;;;;11.25;8.15;;;5.50;99.90;;;;;;5113772;28;20008;-80
2023/10/30 01:10:56;;;;;;;11.80;7.47;;;5.50;99.90;;;;;;5113208;28;20016;-80
2023/10/30 01:13:23;;;;;;;14.38;8.57;;;5.40;99.90;;;;;;5113634;28;20012;-76
2023/10/30 01:15:55;;;;;;;18.50;10.90;;;5.40;99.90;;;;;;5113147;28;20059;-80
2023/10/30 01:18:21;;;;;;;18.98;10.82;;;5.30;99.90;;;;;;5113506;28;20015;-77
2023/10/30 01:20:47;;;;;;;19.60;12.07;;;5.30;99.90;;;;;;5112970;28;20434;-76
2023/10/30 01:23:14;;;;;;;17.25;10.85;;;5.20;99.90;;;;;;5113284;28;20092;-80
2023/10/30 01:25:39;;;;;;;14.48;10.10;;;5.20;99.90;;;;;;5112889;28;20400;-80
2023/10/30 01:28:05;;;;;;;21.33;12.52;;;5.20;99.90;;;;;;5113309;28;20027;-76
2023/10/30 01:30:31;;;;;;;17.08;10.63;;;5.20;99.90;;;;;;5111492;28;20062;-80
2023/10/30 01:32:56;;;;;;;15.45;9.00;;;5.20;99.90;;;;;;5113154;28;20473;-80
2023/10/30 01:35:22;;;;;;;13.52;7.15;;;5.20;99.90;;;;;;5111643;28;20031;-75
2023/10/30 01:37:48;;;;;;;12.75;7.32;;;5.20;99.90;;;;;;5113181;28;20030;-80
2023/10/30 01:40:14;;;;;;;10.52;7.15;;;5.20;99.90;;;;;;5112651;28;20054;-80
2023/10/30 01:42:40;;;;;;;14.57;9.85;;;5.10;99.90;;;;;;5113017;28;20015;-80
2023/10/30 01:45:06;;;;;;;14.85;9.85;;;5.10;99.90;;;;;;5112931;28;20024;-75
2023/10/30 01:47:32;;;;;;;19.45;13.23;;;5.10;99.90;;;;;;5112176;28;20426;-79
2023/10/30 01:49:59;;;;;;;18.15;11.70;;;5.10;99.90;;;;;;5115907;28;20015;-80
2023/10/30 01:52:26;;;;;;;19.95;10.98;;;5.10;99.90;;;;;;5117314;28;20015;-80
2023/10/30 01:54:53;;;;;;;19.20;12.07;;;5.20;99.90;;;;;;5115734;28;20019;-75
2023/10/30 01:57:21;;;;;;;15.43;10.00;;;5.20;99.90;;;;;;5116972;28;20022;-80
2023/10/30 01:59:47;;;;;;;13.98;9.48;;;5.20;99.90;;;;;;5116830;28;20019;-76
2023/10/30 02:02:13;;;;;;;20.52;10.07;;;5.10;99.90;;;;;;5115747;28;20026;-80
2023/10/30 02:04:39;;;;;;;16.58;10.23;;;5.10;99.90;;;;;;5115357;28;20015;-79
2023/10/30 02:07:04;;;;;;;14.98;9.88;;;5.10;99.90;;;;;;5116791;28;20031;-75
2023/10/30 02:09:31;;;;;;;20.02;10.88;;;5.10;99.90;;;;;;5116638;28;20027;-75
2023/10/30 02:11:57;;;;;;;16.05;10.60;;;5.10;99.90;;;;;;5115470;28;20028;-75
2023/10/30 02:14:24;;;;;;;18.25;12.20;;;5.10;99.90;;;;;;5115262;28;20020;-75
2023/10/30 02:16:51;;;;;;;17.27;10.48;;;5.10;99.90;;;;;;5116611;28;20027;-79
2023/10/30 02:19:23;;;;;;;15.73;9.85;;;5.10;99.90;;;;;;5114448;28;20484;-80
2023/10/30 02:21:50;;;;;;;18.67;11.43;;;5.00;99.90;;;;;;5107739;28;20108;-75
2023/10/30 02:24:15;;;;;;;17.88;11.85;;;5.00;99.90;;;;;;5114724;28;20049;-75
2023/10/30 02:26:41;;;;;;;19.05;11.02;;;5.10;99.90;;;;;;5114721;28;20465;-75
2023/10/30 02:29:07;;;;;;;21.45;11.07;;;5.10;99.90;;;;;;5116252;28;20062;-76
2023/10/30 02:31:33;;;;;;;16.67;9.50;;;5.10;99.90;;;;;;5116439;28;20044;-79
2023/10/30 02:34:00;;;;;;;16.17;9.02;;;5.10;99.90;;;;;;5114734;28;20380;-75
2023/10/30 02:36:25;;;;;;;21.10;11.20;;;5.10;99.90;;;;;;5116453;28;20413;-79
2023/10/30 02:38:52;;;;;;;21.83;10.80;;;5.10;99.90;;;;;;5115714;28;20028;-75
2023/10/30 02:41:21;;;;;;;13.98;8.90;;;5.10;99.90;;;;;;5116081;28;20020;-75
2023/10/30 02:43:47;;;;;;;16.50;9.15;;;5.10;99.90;;;;;;5116077;28;20026;-75
2023/10/30 02:46:13;;;;;;;14.70;9.80;;;5.10;99.90;;;;;;5114472;28;20042;-79
2023/10/30 02:48:39;;;;;;;14.30;8.50;;;5.10;99.90;;;;;;5115903;28;20095;-79
2023/10/30 02:51:05;;;;;;;18.35;9.77;;;5.10;99.90;;;;;;5114797;28;20530;-76
2023/10/30 02:53:30;;;;;;;17.95;8.77;;;5.10;99.90;;;;;;5115680;28;20019;-75
2023/10/30 02:55:56;;;;;;;14.18;7.97;;;5.10;99.90;;;;;;5115677;28;20031;-75
2023/10/30 02:58:21;;;;;;;15.98;8.60;;;5.10;99.90;;;;;;5114565;28;20480;-79
2023/10/30 03:00:48;;;;;;;16.73;9.77;;;5.10;99.90;;;;;;5113525;28;20016;-80
2023/10/30 03:03:13;;;;;;;15.52;9.15;;;5.10;99.90;;;;;;5114641;28;20028;-80
2023/10/30 03:05:39;;;;;;;16.83;8.32;;;5.10;99.90;;;;;;5115187;28;20099;-75
2023/10/30 03:08:05;;;;;;;18.55;9.10;;;5.20;99.90;;;;;;5110435;28;20027;-75
2023/10/30 03:10:30;;;;;;;16.42;7.97;;;5.20;99.90;;;;;;5115390;28;20477;-79
2023/10/30 03:12:56;;;;;;;16.20;8.52;;;5.20;99.90;;;;;;5115701;28;20044;-80
2023/10/30 03:15:22;;;;;;;17.00;9.70;;;5.10;99.90;;;;;;5115482;28;20016;-80
2023/10/30 03:17:48;;;;;;;17.27;10.52;;;5.00;99.90;;;;;;5106685;28;20020;-76
2023/10/30 03:20:14;;;;;;;18.63;9.32;;;5.00;99.90;;;;;;5110945;28;20139;-79
2023/10/30 03:22:40;;;;;;;20.55;10.95;;;5.00;99.90;;;;;;5115616;28;20376;-80
2023/10/30 03:25:06;;;;;;;25.10;11.43;;;5.00;99.90;;;;;;5115254;28;20032;-80
2023/10/30 03:27:33;;;;;;;22.83;12.82;;;5.00;99.90;;;;;;5114096;28;20656;-75
2023/10/30 03:29:59;;;;;;;23.77;12.95;;;5.00;99.90;;;;;;5113264;28;20040;-75
2023/10/30 03:32:25;;;;;;;24.20;11.60;;;5.00;99.90;;;;;;5109121;28;20025;-76
2023/10/30 03:34:52;;;;;;;19.60;9.82;;;5.00;99.90;;;;;;5108110;28;20446;-80
2023/10/30 03:37:22;;;;;;;19.42;11.30;;;5.00;99.90;;;;;;5103894;28;20444;-80
2023/10/30 03:39:54;;;;;;;21.05;10.60;;;5.00;99.90;;;;;;5113159;28;20027;-81
2023/10/30 03:42:25;;;;;;;24.02;11.40;;;5.00;99.90;;;;;;5113363;28;20007;-81
2023/10/30 03:44:51;;;;;;;17.08;9.60;;;5.00;99.90;;;;;;5111283;28;20385;-81
2023/10/30 03:47:16;;;;;;;23.98;11.98;;;5.00;99.90;;;;;;5114290;27;20027;-81
2023/10/30 03:49:42;;;;;;;19.58;10.85;;;5.00;99.90;;;;;;5114382;28;20110;-81
2023/10/30 03:52:08;;;;;;;18.40;10.23;;;4.90;99.90;;;;;;5114369;28;20098;-80
2023/10/30 03:54:33;;;;;;;21.38;12.77;;;4.90;99.90;;;;;;5113066;28;20533;-80
2023/10/30 03:56:59;;;;;;;19.10;10.93;;;4.80;99.90;;;;;;5112938;28;20508;-81
2023/10/30 03:59:26;;;;;;;15.50;9.85;;;4.80;99.90;;;;;;5112982;28;20019;-81
2023/10/30 04:01:52;;;;;;;21.80;10.57;;;4.80;99.90;;;;;;5113892;28;20027;-82
2023/10/30 04:04:17;;;;;;;21.73;12.23;;;4.80;99.90;;;;;;5110107;28;20023;-76
2023/10/30 04:06:43;;;;;;;20.00;9.73;;;4.80;99.90;;;;;;5142138;27;20055;-76
2023/10/30 04:09:09;;;;;;;20.23;11.70;;;4.80;99.90;;;;;;5112563;28;20385;-76
2023/10/30 04:11:35;;;;;;;23.80;12.13;;;4.80;99.90;;;;;;5111582;28;20031;-76
2023/10/30 04:14:00;;;;;;;28.23;14.45;;;4.80;99.90;;;;;;5113688;28;20011;-80
2023/10/30 04:16:28;;;;;;;32.53;15.80;;;4.80;99.90;;;;;;5108264;28;20050;-81
2023/10/30 04:18:54;;;;;;;27.80;15.32;;;4.80;99.90;;;;;;5105979;28;20085;-81
2023/10/30 04:21:19;;;;;;;31.35;16.40;;;4.80;99.90;;;;;;5114058;27;20470;-81
2023/10/30 04:23:45;;;;;;;40.80;21.02;;;4.80;99.90;;;;;;5108313;28;20469;-81
2023/10/30 04:26:11;;;;;;;38.83;19.33;;;4.90;99.90;;;;;;5138124;27;20504;-81
2023/10/30 04:28:37;;;;;;;37.95;20.15;;;4.90;99.90;;;;;;5111820;28;20016;-81
2023/10/30 04:31:06;;;;;;;34.80;17.27;;;4.90;99.90;;;;;;5113106;28;20051;-81
2023/10/30 04:33:32;;;;;;;30.88;15.25;;;5.00;99.90;;;;;;5111490;27;20061;-81
2023/10/30 04:36:04;;;;;;;27.30;13.85;;;5.00;99.90;;;;;;5113028;28;20023;-81
2023/10/30 04:38:31;;;;;;;17.40;10.85;;;5.10;99.90;;;;;;5110984;28;20016;-81
2023/10/30 04:40:57;;;;;;;25.30;13.40;;;5.20;99.90;;;;;;5111100;28;20042;-81
2023/10/30 04:43:23;;;;;;;22.33;14.30;;;5.20;99.90;;;;;;5103974;28;20567;-81
2023/10/30 04:45:49;;;;;;;27.77;14.55;;;5.30;99.90;;;;;;5103708;28;20035;-80
2023/10/30 04:48:14;;;;;;;22.77;12.85;;;5.30;99.90;;;;;;5110024;28;20026;-81
2023/10/30 04:50:40;;;;;;;23.90;13.18;;;5.40;99.90;;;;;;5111539;28;20047;-80
2023/10/30 04:53:06;;;;;;;21.85;13.15;;;5.40;99.90;;;;;;5112374;28;20094;-80
2023/10/30 04:55:32;;;;;;;23.65;13.05;;;5.40;99.90;;;;;;5111859;28;20023;-81
2023/10/30 04:57:57;;;;;;;23.67;13.45;;;5.40;99.90;;;;;;5112035;28;20016;-80
2023/10/30 05:00:23;;;;;;;22.13;12.48;;;5.40;99.90;;;;;;5109853;28;20028;-81
2023/10/30 05:02:50;;;;;;;22.65;13.73;;;5.40;99.90;;;;;;5110428;28;20111;-81
2023/10/30 05:05:15;;;;;;;18.83;12.52;;;5.40;99.90;;;;;;5112859;28;20019;-81
2023/10/30 05:07:44;;;;;;;28.63;13.45;;;5.40;99.90;;;;;;5133786;27;20433;-81
2023/10/30 05:10:09;;;;;;;23.40;13.07;;;5.20;99.90;;;;;;5113027;28;20039;-80
2023/10/30 05:12:35;;;;;;;26.95;15.23;;;5.20;99.90;;;;;;5111799;28;20061;-81
2023/10/30 05:15:01;;;;;;;67.40;28.38;;;5.10;99.90;;;;;;5112918;28;20544;-81
2023/10/30 05:17:27;;;;;;;38.00;19.60;;;5.00;99.90;;;;;;5128981;27;20381;-80
2023/10/30 05:19:53;;;;;;;46.78;22.10;;;5.00;99.90;;;;;;5143153;27;20513;-81
2023/10/30 05:22:18;;;;;;;35.58;18.80;;;5.00;99.90;;;;;;5112115;28;20023;-81
2023/10/30 05:24:44;;;;;;;26.27;16.20;;;5.00;99.90;;;;;;5111519;28;20034;-80
2023/10/30 05:27:10;;;;;;;32.75;16.65;;;5.00;99.90;;;;;;5111436;28;20016;-81
2023/10/30 05:29:35;;;;;;;28.58;14.98;;;5.00;99.90;;;;;;5112540;28;20023;-80
2023/10/30 05:32:06;;;;;;;25.13;15.25;;;5.00;99.90;;;;;;5103717;28;20085;-81
2023/10/30 05:34:32;;;;;;;22.80;14.93;;;5.00;99.90;;;;;;5132472;27;20473;-81
2023/10/30 05:36:58;;;;;;;23.08;13.40;;;5.00;99.90;;;;;;5111017;28;20047;-81
2023/10/30 05:39:24;;;;;;;22.38;12.95;;;5.00;99.90;;;;;;5133430;27;20419;-80
2023/10/30 05:41:50;;;;;;;23.83;13.95;;;5.00;99.90;;;;;;5108119;28;20388;-80
2023/10/30 05:44:17;;;;;;;22.10;12.73;;;5.00;99.90;;;;;;5104160;28;20020;-81
2023/10/30 05:46:43;;;;;;;23.45;13.75;;;5.00;99.90;;;;;;5111000;28;20035;-76
2023/10/30 05:49:09;;;;;;;20.40;13.02;;;5.10;99.90;;;;;;5106137;28;20027;-76
2023/10/30 05:51:34;;;;;;;26.02;17.73;;;5.00;99.90;;;;;;5110895;28;20051;-75
2023/10/30 05:54:00;;;;;;;22.55;14.88;;;5.10;99.90;;;;;;5111205;28;20026;-75
2023/10/30 05:56:26;;;;;;;19.38;12.23;;;5.20;99.90;;;;;;5111130;28;20427;-75
2023/10/30 05:58:51;;;;;;;17.90;12.05;;;5.30;99.90;;;;;;5110866;28;20481;-76
2023/10/30 06:01:17;;;;;;;17.85;11.63;;;5.30;99.90;;;;;;5103646;28;20484;-78
2023/10/30 06:03:43;;;;;;;18.33;11.27;;;5.40;99.90;;;;;;5107665;28;20136;-78
2023/10/30 06:06:09;;;;;;;25.85;13.82;;;5.40;99.90;;;;;;5110913;28;20020;-81
2023/10/30 06:08:34;;;;;;;22.77;13.25;;;5.40;99.90;;;;;;5112388;28;20024;-82
2023/10/30 06:11:00;;;;;;;20.80;13.43;;;5.40;99.90;;;;;;5113095;28;20041;-81
2023/10/30 06:13:26;;;;;;;25.05;13.98;;;5.40;99.90;;;;;;5140875;27;20110;-81
2023/10/30 06:15:54;;;;;;;22.10;13.95;;;5.40;99.90;;;;;;5112452;28;20024;-82
2023/10/30 06:18:21;;;;;;;24.85;14.40;;;5.40;99.90;;;;;;5099915;28;20489;-81
2023/10/30 06:20:46;;;;;;;22.65;13.73;;;5.50;99.90;;;;;;5112083;28;20066;-76
2023/10/30 06:23:12;;;;;;;25.77;14.60;;;5.50;99.90;;;;;;5102440;28;20083;-76
2023/10/30 06:25:38;;;;;;;27.10;16.92;;;5.50;99.90;;;;;;5110955;28;20528;-77
2023/10/30 06:28:04;;;;;;;31.40;20.73;;;5.50;99.90;;;;;;5111604;28;20028;-77
2023/10/30 06:30:29;;;;;;;31.33;20.02;;;5.50;99.90;;;;;;5111952;28;20039;-77
2023/10/30 06:32:55;;;;;;;25.73;16.40;;;5.60;99.90;;;;;;5112336;28;20031;-77
2023/10/30 06:35:24;;;;;;;27.95;16.52;;;5.60;99.90;;;;;;5112137;28;20019;-77
2023/10/30 06:37:50;;;;;;;31.13;21.33;;;5.60;99.90;;;;;;5115327;28;20024;-77
2023/10/30 06:40:19;;;;;;;39.10;24.35;;;5.70;99.90;;;;;;5112517;28;20030;-76
2023/10/30 06:42:45;;;;;;;42.70;28.42;;;5.70;99.90;;;;;;5109193;28;20559;-77
2023/10/30 06:45:10;;;;;;;49.72;30.70;;;5.80;99.90;;;;;;5113781;28;20102;-74
2023/10/30 06:47:36;;;;;;;68.18;45.65;;;5.80;99.90;;;;;;5106193;27;20036;-76
2023/10/30 06:50:02;;;;;;;58.92;40.60;;;5.90;99.90;;;;;;5114867;28;20446;-76
2023/10/30 06:52:28;;;;;;;42.42;28.33;;;6.00;99.90;;;;;;5111423;28;20026;-77
2023/10/30 06:54:54;;;;;;;39.53;27.63;;;6.10;99.90;;;;;;5115082;28;20023;-77
2023/10/30 06:57:19;;;;;;;40.35;26.35;;;6.20;99.90;;;;;;5113248;28;20020;-77
2023/10/30 06:59:45;;;;;;;44.50;29.65;;;6.40;99.90;;;;;;5106200;28;20027;-76
2023/10/30 07:02:10;;;;;;;49.38;33.20;;;6.50;99.90;;;;;;5110555;28;20024;-80
2023/10/30 07:04:37;;;;;;;34.03;23.35;;;6.70;99.90;;;;;;5111856;28;20024;-76
2023/10/30 07:07:03;;;;;;;38.47;23.30;;;6.80;99.90;;;;;;5110135;28;20023;-81
2023/10/30 07:09:29;;;;;;;36.80;25.35;;;7.00;99.90;;;;;;5110258;28;20153;-80
2023/10/30 07:11:54;;;;;;;45.60;29.67;;;7.10;99.90;;;;;;5137402;27;20020;-77
2023/10/30 07:14:20;;;;;;;41.33;27.33;;;7.30;99.90;;;;;;5111221;28;20051;-80
2023/10/30 07:16:45;;;;;;;43.00;29.67;;;7.50;99.90;;;;;;5111566;28;20440;-81
2023/10/30 07:19:11;;;;;;;44.22;28.95;;;7.60;99.90;;;;;;5111759;28;20405;-81
2023/10/30 07:21:37;;;;;;;83.10;48.80;;;7.70;99.90;;;;;;5113419;28;20016;-77
2023/10/30 07:24:02;;;;;;;135.70;78.07;;;7.90;99.90;;;;;;5113603;28;20389;-81
2023/10/30 07:26:28;;;;;;;144.00;80.65;;;8.10;99.90;;;;;;5113120;28;20165;-77
2023/10/30 07:28:55;;;;;;;122.60;72.97;;;8.30;99.90;;;;;;5112651;28;20493;-81
2023/10/30 07:31:20;;;;;;;130.00;72.38;;;8.40;99.90;;;;;;5112005;28;20071;-77
2023/10/30 07:33:46;;;;;;;140.25;76.85;;;8.60;99.90;;;;;;5112752;28;20112;-81
2023/10/30 07:36:12;;;;;;;164.38;90.38;;;8.80;99.90;;;;;;5113002;28;20016;-77
2023/10/30 07:38:38;;;;;;;154.63;82.57;;;9.00;99.90;;;;;;5112889;28;20027;-77
2023/10/30 07:41:05;;;;;;;121.22;64.05;;;9.20;99.90;;;;;;5113098;28;20476;-81
2023/10/30 07:43:31;;;;;;;67.07;35.67;;;9.40;99.90;;;;;;5114515;28;20080;-81
2023/10/30 07:45:57;;;;;;;39.47;22.33;;;9.70;99.90;;;;;;5102041;28;20531;-79
2023/10/30 07:48:26;;;;;;;24.27;13.32;;;9.90;99.90;;;;;;5113104;28;20100;-75
2023/10/30 07:50:52;;;;;;;18.20;11.32;;;10.10;99.90;;;;;;5113710;28;20023;-75
2023/10/30 07:53:18;;;;;;;25.70;10.75;;;10.30;99.90;;;;;;5114663;28;20099;-79
2023/10/30 07:55:46;;;;;;;19.50;10.10;;;10.50;99.90;;;;;;5113431;28;20114;-79
2023/10/30 07:58:12;;;;;;;21.80;11.77;;;10.70;99.90;;;;;;5114805;28;20020;-75
2023/10/30 08:00:39;;;;;;;20.73;11.88;;;11.00;99.90;;;;;;5113422;28;20027;-79
2023/10/30 08:03:05;;;;;;;24.02;11.50;;;11.20;99.90;;;;;;5100548;28;20020;-81
2023/10/30 08:05:32;;;;;;;20.42;10.23;;;11.40;99.90;;;;;;5114283;28;20027;-81
2023/10/30 08:07:58;;;;;;;15.68;9.02;;;11.50;99.90;;;;;;5147001;27;20052;-77
2023/10/30 08:10:24;;;;;;;13.98;8.93;;;11.70;99.90;;;;;;5114425;27;20019;-77
2023/10/30 08:12:49;;;;;;;15.55;7.85;;;11.90;99.90;;;;;;5114593;28;20118;-77
2023/10/30 08:15:15;;;;;;;13.68;6.65;;;12.10;99.90;;;;;;5114274;28;20024;-77
2023/10/30 08:17:41;;;;;;;11.88;7.65;;;12.40;99.90;;;;;;5113104;28;20027;-77
2023/10/30 08:20:09;;;;;;;9.88;6.35;;;12.50;99.90;;;;;;5114217;28;20054;-81
2023/10/30 08:22:35;;;;;;;12.65;6.28;;;12.60;99.90;;;;;;5102563;28;20019;-81
2023/10/30 08:25:01;;;;;;;12.52;6.03;;;12.80;99.90;;;;;;5112689;28;20023;-77
2023/10/30 08:27:28;;;;;;;13.02;5.28;;;13.00;99.90;;;;;;5114872;28;20016;-82
2023/10/30 08:29:53;;;;;;;11.20;5.97;;;13.10;99.90;;;;;;5134770;27;20438;-77
2023/10/30 08:32:19;;;;;;;10.48;6.00;;;13.20;99.90;;;;;;5114171;28;20526;-77
2023/10/30 08:34:45;;;;;;;12.75;8.05;;;13.30;99.90;;;;;;5113830;28;20369;-77
2023/10/30 08:37:10;;;;;;;10.73;5.22;;;13.40;99.90;;;;;;5114133;28;20069;-81
2023/10/30 08:39:36;;;;;;;9.88;5.18;;;13.50;99.90;;;;;;5113887;28;20031;-77
2023/10/30 08:42:02;;;;;;;13.38;5.28;;;13.60;99.90;;;;;;5112563;28;20016;-81
2023/10/30 08:44:28;;;;;;;6.85;4.82;;;13.70;99.90;;;;;;5112611;28;20015;-77
2023/10/30 08:46:53;;;;;;;11.75;5.85;;;13.70;99.90;;;;;;5112664;28;20027;-81
2023/10/30 08:49:19;;;;;;;8.65;5.18;;;13.80;99.90;;;;;;5111754;28;20019;-79
2023/10/30 08:51:45;;;;;;;6.75;4.93;;;13.80;99.90;;;;;;5113933;28;20024;-75
2023/10/30 08:54:10;;;;;;;11.00;5.90;;;13.90;99.90;;;;;;5114728;28;20020;-79
2023/10/30 08:56:36;;;;;;;8.35;4.53;;;13.90;99.90;;;;;;5113595;28;20008;-75
2023/10/30 08:59:05;;;;;;;6.78;4.70;;;13.90;99.90;;;;;;5113031;28;20034;-80
2023/10/30 09:01:32;;;;;;;9.05;5.10;;;13.90;99.90;;;;;;5101564;28;20016;-80
2023/10/30 09:03:58;;;;;;;9.90;5.10;;;13.90;99.90;;;;;;5113442;28;20485;-78
2023/10/30 09:06:24;;;;;;;10.65;5.53;;;13.90;99.90;;;;;;5113595;28;20028;-80
2023/10/30 09:08:50;;;;;;;7.47;4.68;;;13.90;99.90;;;;;;5113459;28;20030;-80
2023/10/30 09:11:16;;;;;;;6.07;4.22;;;13.90;99.90;;;;;;5113451;28;20035;-82
2023/10/30 09:13:41;;;;;;;9.32;5.15;;;13.90;99.90;;;;;;5145600;27;20519;-76
2023/10/30 09:16:08;;;;;;;8.85;5.32;;;13.90;99.90;;;;;;5116794;28;20027;-80
2023/10/30 09:18:34;;;;;;;8.93;4.85;;;14.00;99.90;;;;;;5113077;28;20051;-80
2023/10/30 09:21:00;;;;;;;10.05;5.25;;;13.90;99.90;;;;;;5112185;28;20107;-80
2023/10/30 09:23:26;;;;;;;7.97;5.15;;;14.00;99.90;;;;;;5145440;27;20119;-80
2023/10/30 09:25:51;;;;;;;8.30;4.57;;;14.00;99.90;;;;;;5113163;28;20114;-80
2023/10/30 09:28:18;;;;;;;10.50;4.75;;;14.00;99.90;;;;;;5113093;28;20384;-76
2023/10/30 09:30:44;;;;;;;7.50;5.05;;;14.10;99.90;;;;;;5099279;28;20050;-76
2023/10/30 09:33:09;;;;;;;8.63;4.50;;;14.20;99.90;;;;;;5111744;28;20181;-76
2023/10/30 09:35:37;;;;;;;6.60;4.00;;;14.20;99.90;;;;;;5111845;28;20059;-80
2023/10/30 09:38:04;;;;;;;11.02;4.30;;;14.20;99.90;;;;;;5113639;28;20027;-80
2023/10/30 09:40:30;;;;;;;8.07;4.45;;;14.30;99.90;;;;;;5113188;28;20461;-77
2023/10/30 09:42:55;;;;;;;7.75;3.85;;;14.40;99.90;;;;;;5111664;28;20035;-77
2023/10/30 09:45:23;;;;;;;6.70;3.63;;;14.40;99.90;;;;;;5111849;28;20426;-81
2023/10/30 09:47:56;;;;;;;6.80;3.80;;;14.50;99.90;;;;;;5112872;28;20027;-77
2023/10/30 09:50:24;;;;;;;6.28;4.30;;;14.60;99.90;;;;;;5113118;28;20032;-81
2023/10/30 09:52:53;;;;;;;6.35;3.85;;;14.70;99.90;;;;;;5112812;28;20400;-81
2023/10/30 09:55:23;;;;;;;5.70;3.35;;;14.70;99.90;;;;;;5113038;28;20036;-76
2023/10/30 09:57:53;;;;;;;7.45;3.10;;;14.70;99.90;;;;;;5111429;28;20020;-81
2023/10/30 10:00:20;;;;;;;5.55;3.53;;;14.80;99.90;;;;;;5111526;28;20027;-81
2023/10/30 10:02:46;;;;;;;5.32;3.22;;;14.90;99.90;;;;;;5112840;28;20035;-81
2023/10/30 10:05:13;;;;;;;6.38;3.15;;;14.90;99.90;;;;;;5111889;28;20049;-81
2023/10/30 10:07:40;;;;;;;7.25;3.97;;;15.10;99.90;;;;;;5111622;28;20389;-81
2023/10/30 10:10:12;;;;;;;5.38;3.70;;;15.10;99.90;;;;;;5112885;28;20015;-81
2023/10/30 10:12:37;;;;;;;5.50;3.50;;;15.20;99.90;;;;;;5116834;28;20024;-80
2023/10/30 10:15:06;;;;;;;6.10;3.25;;;15.20;99.90;;;;;;5115502;28;20487;-77
2023/10/30 10:17:42;;;;;;;5.68;2.97;;;15.30;99.90;;;;;;5116547;28;20427;-81
2023/10/30 10:20:08;;;;;;;7.72;3.25;;;15.30;99.90;;;;;;5116616;28;20020;-81
2023/10/30 10:22:34;;;;;;;5.22;3.20;;;15.40;99.90;;;;;;5115433;28;20050;-81
2023/10/30 10:25:00;;;;;;;5.22;3.22;;;15.40;99.90;;;;;;5116065;28;20055;-77
2023/10/30 10:27:27;;;;;;;5.18;3.10;;;15.50;99.90;;;;;;5149389;27;20377;-77
2023/10/30 10:29:57;;;;;;;7.20;3.20;;;15.60;99.90;;;;;;5137567;27;20393;-77
2023/10/30 10:32:26;;;;;;;7.78;3.50;;;15.60;99.90;;;;;;5116793;28;20487;-80
2023/10/30 10:35:05;;;;;;;5.70;3.28;;;15.70;99.90;;;;;;5117140;28;20124;-81
2023/10/30 10:37:32;;;;;;;8.32;3.08;;;15.70;99.90;;;;;;5115180;28;20431;-81
2023/10/30 10:39:58;;;;;;;4.05;3.00;;;15.70;99.90;;;;;;5114538;28;20024;-78
2023/10/30 10:42:27;;;;;;;6.65;3.40;;;15.70;99.90;;;;;;5114969;28;20012;-76
2023/10/30 10:44:55;;;;;;;7.30;3.00;;;15.60;99.90;;;;;;5116104;28;20012;-81
2023/10/30 10:47:22;;;;;;;4.75;3.50;;;15.70;99.90;;;;;;5116240;28;20034;-78
2023/10/30 10:49:48;;;;;;;5.25;3.10;;;15.70;99.90;;;;;;5115953;28;20035;-81
2023/10/30 10:52:17;;;;;;;5.43;2.90;;;15.70;99.90;;;;;;5116320;28;20030;-77
2023/10/30 10:55:02;;;;;;;4.93;3.38;;;15.80;99.90;;;;;;5114443;28;20039;-77
2023/10/30 10:57:38;;;;;;;5.93;2.72;;;15.80;99.90;;;;;;5114963;28;20569;-77
2023/10/30 11:00:07;;;;;;;7.35;3.00;;;15.80;99.90;;;;;;5116245;28;20389;-77
2023/10/30 11:02:37;;;;;;;10.05;3.78;;;15.90;99.90;;;;;;5115581;28;20015;-81
2023/10/30 11:05:05;;;;;;;5.00;3.33;;;16.00;99.90;;;;;;5115226;28;20031;-76
2023/10/30 11:07:35;;;;;;;7.85;3.67;;;15.90;99.90;;;;;;5114382;28;20384;-76
2023/10/30 11:10:05;;;;;;;6.25;3.33;;;15.90;99.90;;;;;;5114606;28;20024;-81
2023/10/30 11:12:38;;;;;;;5.90;3.50;;;15.90;99.90;;;;;;5115453;28;20381;-77
2023/10/30 11:15:12;;;;;;;8.70;3.25;;;16.00;99.90;;;;;;5114511;28;20024;-77
2023/10/30 11:17:38;;;;;;;4.90;3.20;;;16.00;99.90;;;;;;5114288;28;20077;-77
2023/10/30 11:20:07;;;;;;;5.40;4.05;;;16.10;99.90;;;;;;5113841;28;20012;-81
2023/10/30 11:22:41;;;;;;;6.32;2.88;;;16.20;99.90;;;;;;5115143;28;20099;-77
2023/10/30 11:25:39;;;;;;;9.45;3.13;;;16.20;99.90;;;;;;5115032;28;20098;-81
2023/10/30 11:28:04;;;;;;;6.45;2.67;;;16.20;99.90;;;;;;5114178;28;20020;-77
2023/10/30 11:30:33;;;;;;;7.07;3.17;;;16.30;99.90;;;;;;5113748;28;20039;-82
2023/10/30 11:32:58;;;;;;;4.90;2.90;;;16.40;99.90;;;;;;5102256;28;20031;-81
2023/10/30 11:35:25;;;;;;;7.97;3.10;;;16.50;99.90;;;;;;5113347;28;20016;-77
2023/10/30 11:37:52;;;;;;;4.07;2.72;;;16.40;99.90;;;;;;5113867;28;20026;-82
2023/10/30 11:40:19;;;;;;;6.38;2.78;;;16.50;99.90;;;;;;5113704;28;20473;-76
2023/10/30 11:42:44;;;;;;;4.50;3.05;;;16.60;99.90;;;;;;5113902;28;20526;-82
2023/10/30 11:45:24;;;;;;;8.27;4.03;;;16.60;99.90;;;;;;5113552;28;20016;-76
2023/10/30 11:47:57;;;;;;;4.32;2.78;;;16.70;99.90;;;;;;5114761;28;20027;-77
2023/10/30 11:50:43;;;;;;;9.13;3.65;;;16.80;99.90;;;;;;5113525;28;20111;-82
2023/10/30 11:53:10;;;;;;;5.78;2.78;;;16.90;99.90;;;;;;5113593;28;20068;-77
2023/10/30 11:55:40;;;;;;;6.45;3.33;;;16.90;99.90;;;;;;5114853;28;20431;-76
2023/10/30 11:58:11;;;;;;;6.70;3.05;;;16.90;99.90;;;;;;5114224;28;20106;-82
2023/10/30 12:00:44;;;;;;;4.28;3.03;;;16.90;99.90;;;;;;5113452;28;20035;-82
2023/10/30 12:03:10;;;;;;;5.93;2.60;;;17.00;99.90;;;;;;5101543;28;20420;-82
2023/10/30 12:05:36;;;;;;;10.05;5.72;;;17.00;99.90;;;;;;5113134;28;20130;-77
2023/10/30 12:08:03;;;;;;;6.68;3.90;;;17.10;99.90;;;;;;5113435;28;20492;-82
2023/10/30 12:10:29;;;;;;;7.07;3.00;;;17.10;99.90;;;;;;5113082;28;20028;-77
2023/10/30 12:12:55;;;;;;;7.00;2.83;;;17.10;99.90;;;;;;5113294;28;20389;-77
2023/10/30 12:15:20;;;;;;;4.80;3.28;;;17.10;99.90;;;;;;5112974;28;20077;-81
2023/10/30 12:17:46;;;;;;;3.75;2.38;;;17.20;99.90;;;;;;5113152;28;20070;-82
2023/10/30 12:20:12;;;;;;;6.47;2.70;;;17.20;99.90;;;;;;5114083;28;20024;-80
2023/10/30 12:22:41;;;;;;;3.47;2.78;;;17.10;99.90;;;;;;5114235;28;20020;-77
2023/10/30 12:25:09;;;;;;;5.47;2.90;;;17.10;99.90;;;;;;5113922;28;20049;-76
2023/10/30 12:27:35;;;;;;;5.93;2.53;;;17.10;99.90;;;;;;5114240;28;20030;-81
2023/10/30 12:30:15;;;;;;;5.68;2.78;;;17.20;99.90;;;;;;5113908;28;20059;-82
2023/10/30 12:32:41;;;;;;;3.58;2.35;;;17.20;99.90;;;;;;5113300;28;20396;-77
2023/10/30 12:35:13;;;;;;;5.47;2.70;;;17.20;99.90;;;;;;5113814;28;20019;-76
2023/10/30 12:37:43;;;;;;;5.70;2.10;;;17.20;99.90;;;;;;5113902;28;20561;-82